Petropavlovsk-Kamchatskiy, Russia
Current Conditions -  °F | °C
As of 8:00 PM on Thursday 23 Oct 2014 (Local Time) from UHPP Reporting Station
Broken Clouds Broken Clouds  
Wind Chill: 30°   Ceiling: 3000
Heat Index: 34°   Visibility: 6mi
Dew Point: 28°   Wind: 4mph
Humidity: 81%   Direction: 180°S
Pressure: 29.83"   Gusts: NA
Location:  53.02°N, 158.65°E
Report Text: UHPP 230800Z 18002MPS 150V220 9999 BKN030CB 01/M02 Q1010 NOSIGRMK QFE754/1005 SC060
Loading
Personal Weather Stations






























Interactive Weather Map
Tropical Storm Tracking
New forecast layout! Learn more

10-Day Weather Forecast

Advertisements
Track Severe Weather on mobile